Klamath Falls Airport
KLMT : now visible

Airfield :











YOU CAN JOIN US ON...

 
LOGIN :

Register | Disclaimer

   EN    FR    IT 

 









Legend :    VFR   Marginal VFR   IFR   Intensive IFR   Very Intensive IFR
Visi :
Ceiling :
>= 8 km
>= 3000ft
5 to 8 km
1000 to 3000 ft
1500m to 5 km
500 to 1000 ft
800 to 1500m
200 to 500 ft
< 800m
< 200 ft
Symbols :   Thunderstorms  Fog  Heavy snow  Heavy precipitations  Wind > 20 kt






- Airport Elevation : 4095 ft
- IATA code : LMT


KLMT - Klamath Falls

CURRENT METAR :
  • 121800Z 17007KT 10SM SCT010 BKN028 OVC040 06/04 A3013 RMK AO2 T00610044

EXPIRED METARs :
  • 121753Z 17007KT 10SM SCT008 BKN024 OVC035 06/04 A3013 RMK AO2 RAE50 SLP204 P0002 60012 T00560044 10056 20039 51005
  • 121653Z 18008KT 10SM -RA BKN025 BKN030 OVC050 05/04 A3013 RMK AO2 RAB04 SLP203 P0000 T00500039
  • 121553Z 16003KT 10SM FEW012 BKN030 OVC070 04/03 A3012 RMK AO2 RAE18 SLP198 P0001 T00440033

TAF KLMT
Valid from the 12 at 18:00 until the 13 at 18:00 UTC


121728Z 1218/1318 20004KT P6SM VCSH BKN015 BKN025
FM121900 22004KT 6SM -RA BKN025
FM130100 25007KT 6SM -SHRA BR OVC025
FM130700 20004KT 1 1/2SM -SHRA BR OVC025
FM131200 20003KT 1 1/2SM -RA BR OVC015
FM131600 26002KT 1 1/2SM -SN BR OVC025



MET'MAP, your aeronautical weather chart ! - Copyright ORBIFLY December 2007 - Disclaimer

ORBIFLY MET'MAP TEAM :

Programming & Development : Alexandra Zaïnal
Concept & original design : Baudouin d'Aumeries
Assistance for programming : Marc-Olivier Méhu
Technical & hardware support : Manuel Goepfert

Contact : metmap@orbifly.com




SOURCES & CREDITS :

   NOAA       Earth
Advisory